Barstow-Daggett, CA

3:12 AM PDT on August 21, 2014 (GMT -0700)
Big Bear City | Change Station
CLOSE
Current Station
Airport
Location: Big Bear City,
Elevation: 6752 ft
Nearby Weather Stations

Elev 6752 ft 34.26 °N, 116.86 °W | Updated 17 minutes ago

Clear
Clear
43 °F
Feels Like 43 °F
N
0
Wind Variable Wind from North

Today
High -- | Low -- °F
--% Chance of Precip.
Yesterday
High -- | Low -- °F
Precip. -- in
6:11 AM 7:27 PM
Waning Crescent, 15% visible
Pressure 30.20 in
Visibility 10.0 miles
Clouds Clear
Dew Point 36 °F
Humidity 76%
Rainfall 0.00 in
Snow Depth Not available.
UV 0 out of 12
Pollen 5.60 out of 12
Ozone Good
Flu Activity Not available.
METAR KL35 210955Z AUTO 00000KT 10SM CLR 06/02 A3020 RMK AO2

More Conditions Fewer Conditions

Pressure 30.20 in
Visibility 10.0 miles
Clouds Clear
Dew Point 36 °F
Humidity 76%
Rainfall 0.00 in
Snow Depth Not available.
UV 0 out of 12
Pollen 5.60 out of 12
Ozone Good
Flu Activity Not available.
METAR KL35 210955Z AUTO 00000KT 10SM CLR 06/02 A3020 RMK AO2

More Conditions Fewer Conditions

10-Day Weather Forecast

Almanac

Astronomy

Aug. 21, 2014 Rise Set
Actual Time 6:11 AM PDT 7:27 PM PDT
Civil Twilight 5:45 AM PDT 7:54 PM PDT
Nautical Twilight 5:14 AM PDT 8:25 PM PDT
Astronomical Twilight 4:41 AM PDT 8:58 PM PDT
Moon 2:50 AM PDT 4:56 PM PDT
Length of Visible Light 14h 08m
Length of Day
13h 15m
Tomorrow will be 2m 0s shorter.
Waning Crescent, 15% of the Moon is Illuminated
Today
Waning Crescent
Aug 25
New
Sep 2
First Quarter
Sep 8
Full
Sep 15
Last Quarter

Today's Extremes

State Highs State Lows

Community

WunderPhotos

Upload Photos

1,745,871 photos uploaded!

Nearby

Air Quality

  Air Quality AQ Index Pollutant
Yesterday Good
OZONE
Yesterday Good
PM10
Current Good
OZONE
Thursday Good
OZONE
Thursday Good
PM10
Thursday Good
CO
Thursday Good
NO2

Snow Depth

Station Depth Elevation
Leavitt Lake 1 in 9400 ft
Leavitt Meadows 1 in 7200 ft
Summit Meadow 0 in 9122 ft
Monitor Pass 1 in 8350 ft
Blue Lakes 0 in 8000 ft

Earthquake Activity

City Distance Mag. Time & Date
Malibu Beach, California 126 miles 3.4 10:03 AM PDT
2014-08-15
Yucca Valley, California 42 miles 3.8 8:57 PM PDT
2014-08-14
Salton City, California 122 miles 2.6 6:58 AM PDT
2014-08-14
Minimum magnitude displayed is 2.5.

Coastal Water Temperatures

Place Temperature
No Stations Reporting

Nearby Weather Stations